createdAt,value
2022-09-10T00:01:54.889Z,22.44
2022-09-10T00:04:54.669Z,22.44
2022-09-10T00:07:54.375Z,22.45
2022-09-10T00:10:54.396Z,22.44
2022-09-10T00:12:54.787Z,22.44
2022-09-10T00:15:55.173Z,22.42
2022-09-10T00:17:55.164Z,22.44
2022-09-10T00:20:54.397Z,22.45
2022-09-10T00:24:54.404Z,22.43
2022-09-10T00:26:54.384Z,22.42
2022-09-10T00:29:54.405Z,22.39
2022-09-10T00:31:55.642Z,22.37
2022-09-10T00:34:01.956Z,22.36
2022-09-10T00:35:55.133Z,22.36
2022-09-10T00:37:55.284Z,22.36
2022-09-10T00:40:54.393Z,22.37
2022-09-10T00:43:54.393Z,22.37
2022-09-10T00:46:54.395Z,22.36
2022-09-10T00:49:54.384Z,22.34
2022-09-10T00:51:54.590Z,22.37
2022-09-10T00:54:54.396Z,22.38
2022-09-10T00:56:54.777Z,22.41
2022-09-10T00:58:54.853Z,22.39
2022-09-10T01:01:54.443Z,22.34
2022-09-10T01:04:54.386Z,22.34
2022-09-10T01:06:54.404Z,22.32
2022-09-10T01:08:54.425Z,22.35
2022-09-10T01:10:54.785Z,22.36
2022-09-10T01:13:54.426Z,22.33
2022-09-10T01:17:54.413Z,22.28
2022-09-10T01:19:54.694Z,22.29
2022-09-10T01:22:54.746Z,22.29
2022-09-10T01:25:54.425Z,22.31
2022-09-10T01:28:54.420Z,22.29
2022-09-10T01:31:54.416Z,22.26
2022-09-10T01:34:54.462Z,22.23
2022-09-10T01:37:54.417Z,22.23
2022-09-10T01:40:54.406Z,22.22
2022-09-10T01:42:54.409Z,22.23
2022-09-10T01:45:54.453Z,22.25
2022-09-10T01:47:54.402Z,22.24
2022-09-10T01:49:54.864Z,22.26
2022-09-10T01:52:00.156Z,22.26
2022-09-10T01:54:54.395Z,22.27
2022-09-10T01:56:54.463Z,22.26
2022-09-10T01:59:54.429Z,22.27
2022-09-10T02:02:54.485Z,22.28
2022-09-10T02:05:54.441Z,22.26
2022-09-10T02:08:54.451Z,22.24
2022-09-10T02:10:54.494Z,22.24
2022-09-10T02:14:54.597Z,22.23
2022-09-10T02:16:54.729Z,22.23
2022-09-10T02:18:55.103Z,22.23
2022-09-10T02:21:54.397Z,22.22
2022-09-10T02:23:54.906Z,22.21
2022-09-10T02:26:55.292Z,22.21
2022-09-10T02:29:54.417Z,22.23
2022-09-10T02:31:54.855Z,22.21
2022-09-10T02:34:54.603Z,22.23
2022-09-10T02:37:54.423Z,22.2
2022-09-10T02:39:55.282Z,22.19
2022-09-10T02:42:54.406Z,22.2
2022-09-10T02:44:55.064Z,22.21
2022-09-10T02:47:53.494Z,22.19
2022-09-10T02:49:54.412Z,22.17
2022-09-10T02:52:54.948Z,22.17
2022-09-10T02:54:55.214Z,22.2
2022-09-10T02:59:54.415Z,22.16
2022-09-10T03:02:55.283Z,22.16
2022-09-10T03:04:55.371Z,22.15
2022-09-10T03:07:54.431Z,22.15
2022-09-10T03:10:54.606Z,22.14
2022-09-10T03:13:54.726Z,22.15
2022-09-10T03:15:55.169Z,22.15
2022-09-10T03:18:54.410Z,22.14
2022-09-10T03:21:55.014Z,22.13
2022-09-10T03:23:55.773Z,22.13
2022-09-10T03:25:55.084Z,22.12
2022-09-10T03:28:54.931Z,22.12
2022-09-10T03:31:54.443Z,22.13
2022-09-10T03:33:54.726Z,22.14
2022-09-10T03:36:54.446Z,22.14
2022-09-10T03:38:54.728Z,22.13
2022-09-10T03:41:53.525Z,22.13
2022-09-10T03:43:54.483Z,22.12
2022-09-10T03:45:55.044Z,22.1
2022-09-10T03:47:55.105Z,22.11
2022-09-10T03:50:54.449Z,22.13
2022-09-10T03:52:55.011Z,22.14
2022-09-10T03:55:55.203Z,22.1
2022-09-10T03:57:55.233Z,22.07
2022-09-10T04:00:54.908Z,22.1
2022-09-10T04:03:54.445Z,22.11
2022-09-10T04:06:54.430Z,22.11
2022-09-10T04:08:54.456Z,22.08
2022-09-10T04:10:55.152Z,22.08
2022-09-10T04:13:54.434Z,22.09
2022-09-10T04:16:54.529Z,22.11
2022-09-10T04:19:54.892Z,22.07
2022-09-10T04:21:55.322Z,22.06
2022-09-10T04:23:55.375Z,22.05
2022-09-10T04:27:54.435Z,21.98
2022-09-10T04:29:54.567Z,21.99
2022-09-10T04:33:54.463Z,22.02
2022-09-10T04:36:54.479Z,21.95
2022-09-10T04:39:55.265Z,21.95
2022-09-10T04:41:55.326Z,21.96
2022-09-10T04:44:54.674Z,21.97
2022-09-10T04:47:54.446Z,21.95
2022-09-10T04:51:15.076Z,21.95
2022-09-10T04:52:55.096Z,21.97
2022-09-10T04:55:54.459Z,21.98
2022-09-10T04:57:54.994Z,22
2022-09-10T05:01:54.487Z,22.01
2022-09-10T05:04:54.649Z,22.02
2022-09-10T05:07:54.512Z,21.98
2022-09-10T05:09:54.511Z,21.96
2022-09-10T05:12:54.911Z,21.97
2022-09-10T05:15:54.467Z,21.98
2022-09-10T05:17:54.494Z,21.98
2022-09-10T05:19:54.461Z,22
2022-09-10T05:21:54.490Z,22
2022-09-10T05:24:55.253Z,21.99
2022-09-10T05:27:54.487Z,21.94
2022-09-10T05:29:54.476Z,21.92
2022-09-10T05:32:54.652Z,21.88
2022-09-10T05:35:55.105Z,21.87
2022-09-10T05:37:55.206Z,21.89
2022-09-10T05:40:54.454Z,21.91
2022-09-10T05:43:54.620Z,21.9
2022-09-10T05:46:54.526Z,21.91
2022-09-10T05:48:54.604Z,21.9
2022-09-10T05:51:54.487Z,21.91
2022-09-10T05:53:54.445Z,21.91
2022-09-10T05:55:54.557Z,21.91
2022-09-10T05:58:55.021Z,21.89
2022-09-10T06:01:54.564Z,21.87
2022-09-10T06:03:55.132Z,21.88
2022-09-10T06:06:54.551Z,21.88
2022-09-10T06:09:54.498Z,21.9
2022-09-10T06:12:54.473Z,21.87
2022-09-10T06:14:54.487Z,21.86
2022-09-10T06:16:54.466Z,21.88
2022-09-10T06:19:54.504Z,21.89
2022-09-10T06:22:54.485Z,21.92
2022-09-10T06:24:54.511Z,21.89
2022-09-10T06:27:54.457Z,21.87
2022-09-10T06:29:54.473Z,21.88
2022-09-10T06:31:54.978Z,21.86
2022-09-10T06:34:54.702Z,21.88
2022-09-10T06:37:54.494Z,21.88
2022-09-10T06:40:53.591Z,21.89
2022-09-10T06:42:54.478Z,21.89
2022-09-10T06:44:54.490Z,21.88
2022-09-10T06:49:54.864Z,21.88
2022-09-10T06:52:54.960Z,21.89
2022-09-10T06:55:55.104Z,21.87
2022-09-10T06:58:54.558Z,21.83
2022-09-10T07:01:54.515Z,21.89
2022-09-10T07:04:54.487Z,21.8
2022-09-10T07:06:54.701Z,21.79
2022-09-10T07:09:55.089Z,21.82
2022-09-10T07:13:54.553Z,21.88
2022-09-10T07:16:54.503Z,21.89
2022-09-10T07:19:54.494Z,21.85
2022-09-10T07:21:55.127Z,21.82
2022-09-10T07:24:54.482Z,21.82
2022-09-10T07:26:54.721Z,21.81
2022-09-10T07:29:54.802Z,21.84
2022-09-10T07:32:54.552Z,21.79
2022-09-10T07:36:54.474Z,21.75
2022-09-10T07:38:54.602Z,21.8
2022-09-10T07:40:54.911Z,21.85
2022-09-10T07:43:55.056Z,21.89
2022-09-10T07:46:53.578Z,21.9
2022-09-10T07:48:54.791Z,21.88
2022-09-10T07:51:59.263Z,21.87
2022-09-10T07:54:55.040Z,21.81
2022-09-10T07:56:55.137Z,21.77
2022-09-10T07:59:54.486Z,21.67
2022-09-10T08:02:54.560Z,21.65
2022-09-10T08:04:54.892Z,21.61
2022-09-10T08:06:54.950Z,21.61
2022-09-10T08:10:54.805Z,21.6
2022-09-10T08:13:54.560Z,21.67
2022-09-10T08:16:55.314Z,21.53
2022-09-10T08:19:55.099Z,21.57
2022-09-10T08:22:54.537Z,21.55
2022-09-10T08:24:54.549Z,21.49
2022-09-10T08:27:54.481Z,21.42
2022-09-10T08:29:54.616Z,21.42
2022-09-10T08:31:55.069Z,21.35
2022-09-10T08:34:54.535Z,21.32
2022-09-10T08:36:55.066Z,21.36
2022-09-10T08:39:59.102Z,21.45
2022-09-10T08:43:55.239Z,21.57
2022-09-10T08:46:55.252Z,21.64
2022-09-10T08:49:54.517Z,21.68
2022-09-10T08:51:55.355Z,21.65
2022-09-10T08:54:55.260Z,21.53
2022-09-10T08:57:54.907Z,21.46
2022-09-10T09:00:54.541Z,21.43
2022-09-10T09:02:54.749Z,21.43
2022-09-10T09:05:54.540Z,21.47
2022-09-10T09:07:54.541Z,21.42
2022-09-10T09:09:54.595Z,21.36
2022-09-10T09:12:54.540Z,21.34
2022-09-10T09:15:54.579Z,21.45
2022-09-10T09:19:54.582Z,21.65
2022-09-10T09:21:54.617Z,21.75
2022-09-10T09:24:09.683Z,21.85
2022-09-10T09:26:54.503Z,21.96
2022-09-10T09:28:54.566Z,22
2022-09-10T09:33:54.548Z,22.07
2022-09-10T09:35:55.310Z,22.09
2022-09-10T09:38:54.557Z,22.03
2022-09-10T09:40:54.689Z,22.02
2022-09-10T09:44:57.110Z,22.14
2022-09-10T09:46:54.878Z,22.11
2022-09-10T09:49:54.548Z,22.23
2022-09-10T09:51:54.559Z,22.27
2022-09-10T09:54:12.881Z,22.32
2022-09-10T09:55:55.031Z,22.42
2022-09-10T09:58:54.531Z,22.37
2022-09-10T10:01:54.762Z,22.35
2022-09-10T10:03:54.661Z,22.32
2022-09-10T10:06:54.568Z,22.24
2022-09-10T10:09:54.531Z,22.23
2022-09-10T10:11:55.156Z,22.3
2022-09-10T10:14:54.554Z,22.29
2022-09-10T10:17:55.040Z,22.23
2022-09-10T10:20:55.137Z,22.26
2022-09-10T10:23:54.599Z,22.32
2022-09-10T10:25:55.231Z,22.32
2022-09-10T10:27:55.356Z,22.36
2022-09-10T10:30:55.389Z,22.49
2022-09-10T10:33:55.317Z,22.49
2022-09-10T10:36:54.774Z,22.41
2022-09-10T10:40:55.133Z,22.37
2022-09-10T10:43:54.564Z,22.3
2022-09-10T10:46:54.599Z,22.34
2022-09-10T10:49:54.540Z,22.31
2022-09-10T10:52:54.529Z,22.37
2022-09-10T10:54:55.009Z,22.44
2022-09-10T10:57:55.536Z,22.43
2022-09-10T11:00:54.531Z,22.4
2022-09-10T11:02:54.546Z,22.41
2022-09-10T11:04:54.599Z,22.44
2022-09-10T11:07:55.254Z,22.46
2022-09-10T11:10:54.564Z,22.5
2022-09-10T11:14:54.879Z,22.52
2022-09-10T11:16:58.685Z,22.54
2022-09-10T11:20:11.034Z,22.48
2022-09-10T11:22:54.904Z,22.52
2022-09-10T11:25:54.542Z,22.61
2022-09-10T11:27:54.854Z,22.67
2022-09-10T11:29:55.049Z,22.69
2022-09-10T11:32:54.557Z,22.73
2022-09-10T11:35:53.625Z,22.77
2022-09-10T11:37:54.587Z,22.77
2022-09-10T11:39:54.629Z,22.72
2022-09-10T11:42:55.031Z,22.68
2022-09-10T11:44:55.128Z,22.7
2022-09-10T11:47:54.845Z,22.76
2022-09-10T11:50:55.009Z,22.71
2022-09-10T11:52:55.087Z,22.74
2022-09-10T11:55:54.597Z,22.86
2022-09-10T11:58:54.641Z,22.98
2022-09-10T12:00:55.266Z,23.03
2022-09-10T12:03:54.673Z,23.09
2022-09-10T12:05:54.908Z,23.09
2022-09-10T12:08:54.735Z,23.04
2022-09-10T12:10:55.222Z,23
2022-09-10T12:13:55.195Z,23.07
2022-09-10T12:16:55.233Z,23.22
2022-09-10T12:20:54.581Z,23.32
2022-09-10T12:22:54.794Z,23.35
2022-09-10T12:25:55.127Z,23.44
2022-09-10T12:28:54.589Z,23.53
2022-09-10T12:31:55.056Z,23.62
2022-09-10T12:34:55.477Z,23.83
2022-09-10T12:37:54.653Z,23.98
2022-09-10T12:41:54.860Z,24.06
2022-09-10T12:45:01.792Z,24.04
2022-09-10T12:46:54.593Z,24.01
2022-09-10T12:48:55.254Z,23.92
2022-09-10T12:50:55.415Z,23.87
2022-09-10T12:53:54.567Z,23.78
2022-09-10T12:55:54.615Z,23.78
2022-09-10T12:58:54.564Z,23.86
2022-09-10T13:00:54.633Z,23.91
2022-09-10T13:04:55.089Z,23.99
2022-09-10T13:06:55.159Z,24.05
2022-09-10T13:09:54.560Z,24.12
2022-09-10T13:11:54.590Z,24.16
2022-09-10T13:13:55.212Z,24.21
2022-09-10T13:16:54.565Z,24.32
2022-09-10T13:19:55.150Z,24.44
2022-09-10T13:22:54.570Z,24.5
2022-09-10T13:25:55.073Z,24.59
2022-09-10T13:28:54.830Z,24.66
2022-09-10T13:31:54.604Z,24.71
2022-09-10T13:33:54.579Z,24.75
2022-09-10T13:35:54.590Z,24.82
2022-09-10T13:38:54.590Z,24.96
2022-09-10T13:40:54.574Z,25.06
2022-09-10T13:42:54.625Z,25.14
2022-09-10T13:45:54.935Z,25.2
2022-09-10T13:48:54.602Z,25.25
2022-09-10T13:51:54.591Z,25.33
2022-09-10T13:53:54.578Z,25.37
2022-09-10T13:56:54.576Z,25.4
2022-09-10T13:59:55.241Z,25.44
2022-09-10T14:02:55.188Z,25.44
2022-09-10T14:05:54.646Z,25.3
2022-09-10T14:07:54.801Z,25.2
2022-09-10T14:10:54.609Z,25.18
2022-09-10T14:12:54.637Z,25.26
2022-09-10T14:14:55.217Z,25.4
2022-09-10T14:17:54.827Z,25.7
2022-09-10T14:19:55.048Z,25.92
2022-09-10T14:22:55.986Z,26.2
2022-09-10T14:25:55.078Z,26.43
2022-09-10T14:28:55.237Z,26.63
2022-09-10T14:31:54.820Z,26.77
2022-09-10T14:33:55.298Z,26.86
2022-09-10T14:36:55.383Z,27
2022-09-10T14:39:54.614Z,27.18
2022-09-10T14:41:55.345Z,27.29
2022-09-10T14:44:54.943Z,27.41
2022-09-10T14:47:54.619Z,27.6
2022-09-10T14:50:55.168Z,27.84
2022-09-10T14:53:54.756Z,27.84
2022-09-10T14:56:54.620Z,27.71
2022-09-10T14:58:55.075Z,27.57
2022-09-10T15:00:55.238Z,27.41
2022-09-10T15:03:54.206Z,27.25
2022-09-10T15:05:54.623Z,27.13
2022-09-10T15:07:55.541Z,26.99
2022-09-10T15:10:55.110Z,26.81
2022-09-10T15:12:55.259Z,26.71
2022-09-10T15:15:54.986Z,26.57
2022-09-10T15:18:54.649Z,26.46
2022-09-10T15:20:55.340Z,26.39
2022-09-10T15:23:55.611Z,26.33
2022-09-10T15:27:54.674Z,26.25
2022-09-10T15:30:54.667Z,26.16
2022-09-10T15:32:54.925Z,26.09
2022-09-10T15:35:54.645Z,25.93
2022-09-10T15:37:55.640Z,25.87
2022-09-10T15:39:54.844Z,25.82
2022-09-10T15:41:54.987Z,25.81
2022-09-10T15:44:54.665Z,25.8
2022-09-10T15:47:54.902Z,25.82
2022-09-10T15:49:55.124Z,25.85
2022-09-10T15:51:55.141Z,25.93
2022-09-10T15:53:55.147Z,26
2022-09-10T15:56:55.158Z,26.08
2022-09-10T15:59:54.881Z,26.09
2022-09-10T16:02:54.949Z,25.98
2022-09-10T16:05:55.063Z,25.86
2022-09-10T16:08:54.667Z,25.76
2022-09-10T16:11:54.663Z,25.68
2022-09-10T16:14:54.682Z,25.59
2022-09-10T16:17:54.649Z,25.5
2022-09-10T16:19:54.725Z,25.4
2022-09-10T16:21:54.829Z,25.27
2022-09-10T16:24:54.646Z,25.15
2022-09-10T16:27:54.648Z,25.13
2022-09-10T16:30:54.773Z,24.99
2022-09-10T16:33:55.124Z,24.87
2022-09-10T16:36:54.694Z,24.85
2022-09-10T16:38:54.818Z,24.89
2022-09-10T16:41:54.643Z,25.08
2022-09-10T16:43:54.660Z,25.21
2022-09-10T16:46:54.727Z,25.37
2022-09-10T16:49:54.661Z,25.48
2022-09-10T16:51:54.691Z,25.45
2022-09-10T16:54:54.709Z,25.42
2022-09-10T16:57:55.005Z,25.39
2022-09-10T17:00:57.796Z,25.38
2022-09-10T17:02:54.785Z,25.36
2022-09-10T17:04:55.091Z,25.27
2022-09-10T17:07:55.563Z,25.13
2022-09-10T17:10:54.701Z,25.11
2022-09-10T17:13:54.665Z,25.05
2022-09-10T17:15:54.701Z,25.06
2022-09-10T17:19:54.687Z,25
2022-09-10T17:22:54.674Z,24.94
2022-09-10T17:24:54.822Z,24.88
2022-09-10T17:27:54.737Z,24.64
2022-09-10T17:29:55.450Z,24.62
2022-09-10T17:32:55.256Z,24.56
2022-09-10T17:35:54.677Z,24.38
2022-09-10T17:38:54.696Z,24.29
2022-09-10T17:41:54.667Z,24.2
2022-09-10T17:43:54.699Z,24.09
2022-09-10T17:45:55.242Z,24.08
2022-09-10T17:48:54.668Z,23.94
2022-09-10T17:50:54.703Z,23.9
2022-09-10T17:52:55.123Z,23.94
2022-09-10T17:55:55.463Z,23.84
2022-09-10T17:58:54.735Z,23.75
2022-09-10T18:01:53.772Z,23.58
2022-09-10T18:03:54.669Z,23.47
2022-09-10T18:06:54.679Z,23.45
2022-09-10T18:09:54.651Z,23.52
2022-09-10T18:11:56.494Z,23.47
2022-09-10T18:15:54.659Z,23.4
2022-09-10T18:17:54.665Z,23.33
2022-09-10T18:19:55.533Z,23.29
2022-09-10T18:22:55.073Z,23.3
2022-09-10T18:26:54.704Z,23.35
2022-09-10T18:28:55.587Z,23.32
2022-09-10T18:31:54.885Z,23.33
2022-09-10T18:34:55.711Z,23.37
2022-09-10T18:36:55.353Z,23.31
2022-09-10T18:39:54.712Z,23.36
2022-09-10T18:42:54.676Z,23.38
2022-09-10T18:44:55.025Z,23.47
2022-09-10T18:48:55.138Z,23.57
2022-09-10T18:50:55.214Z,23.5
2022-09-10T18:53:54.668Z,23.36
2022-09-10T18:55:55.129Z,23.22
2022-09-10T18:58:54.697Z,23.21
2022-09-10T19:00:58.429Z,23.31
2022-09-10T19:03:54.850Z,23.35
2022-09-10T19:05:55.395Z,23.38
2022-09-10T19:08:55.161Z,23.48
2022-09-10T19:10:55.550Z,23.5
2022-09-10T19:13:54.703Z,23.54
2022-09-10T19:16:54.717Z,23.47
2022-09-10T19:19:54.717Z,23.48
2022-09-10T19:22:54.731Z,23.39
2022-09-10T19:24:56.097Z,23.43
2022-09-10T19:27:55.269Z,23.41
2022-09-10T19:30:54.983Z,23.37
2022-09-10T19:32:58.192Z,23.36
2022-09-10T19:35:56.633Z,23.19
2022-09-10T19:38:55.336Z,22.99
2022-09-10T19:40:55.534Z,22.96
2022-09-10T19:42:55.578Z,23.03
2022-09-10T19:45:54.720Z,23.07
2022-09-10T19:48:54.967Z,23.12
2022-09-10T19:50:55.267Z,23.2
2022-09-10T19:53:53.758Z,23.28
2022-09-10T19:55:54.806Z,23.3
2022-09-10T19:57:55.259Z,23.29
2022-09-10T20:00:55.185Z,23.3
2022-09-10T20:03:54.714Z,23.2
2022-09-10T20:05:54.706Z,23.2
2022-09-10T20:08:54.714Z,23.19
2022-09-10T20:10:55.278Z,23.13
2022-09-10T20:13:54.729Z,23.12
2022-09-10T20:15:55.091Z,23.04
2022-09-10T20:18:54.880Z,22.83
2022-09-10T20:21:55.288Z,22.77
2022-09-10T20:24:54.859Z,22.72
2022-09-10T20:27:55.007Z,22.58
2022-09-10T20:30:55.495Z,22.55
2022-09-10T20:33:54.870Z,22.61
2022-09-10T20:36:53.814Z,22.61
2022-09-10T20:38:54.797Z,22.68
2022-09-10T20:41:54.711Z,22.38
2022-09-10T20:43:54.746Z,22.17
2022-09-10T20:46:54.731Z,21.91
2022-09-10T20:48:54.769Z,21.92
2022-09-10T20:51:55.351Z,22.07
2022-09-10T20:54:54.757Z,22.16
2022-09-10T20:56:54.776Z,22.25
2022-09-10T20:59:54.939Z,22.32
2022-09-10T21:02:54.723Z,22.25
2022-09-10T21:04:54.730Z,22.23
2022-09-10T21:07:54.713Z,22.34
2022-09-10T21:09:54.871Z,22.3
2022-09-10T21:12:54.745Z,22.16
2022-09-10T21:14:54.732Z,22.24
2022-09-10T21:16:54.953Z,22.28
2022-09-10T21:19:54.710Z,22.45
2022-09-10T21:21:55.152Z,22.46
2022-09-10T21:24:55.076Z,22.54
2022-09-10T21:27:55.723Z,22.59
2022-09-10T21:30:54.768Z,22.63
2022-09-10T21:32:55.032Z,22.65
2022-09-10T21:35:54.736Z,22.7
2022-09-10T21:37:55.512Z,22.74
2022-09-10T21:40:54.857Z,22.77
2022-09-10T21:42:55.027Z,22.77
2022-09-10T21:45:54.749Z,22.78
2022-09-10T21:48:54.747Z,22.76
2022-09-10T21:52:54.858Z,22.67
2022-09-10T21:55:54.777Z,22.7
2022-09-10T21:57:54.824Z,22.67
2022-09-10T22:00:55.439Z,22.57
2022-09-10T22:03:54.764Z,22.61
2022-09-10T22:05:55.423Z,22.62
2022-09-10T22:08:54.760Z,22.54
2022-09-10T22:11:54.750Z,22.44
2022-09-10T22:13:55.454Z,22.51
2022-09-10T22:16:54.779Z,22.5
2022-09-10T22:18:54.753Z,22.48
2022-09-10T22:21:54.943Z,22.5
2022-09-10T22:24:54.989Z,22.51
2022-09-10T22:26:55.136Z,22.47
2022-09-10T22:29:55.405Z,22.37
2022-09-10T22:32:54.771Z,22.44
2022-09-10T22:34:54.792Z,22.43
2022-09-10T22:37:54.743Z,22.42
2022-09-10T22:39:55.119Z,22.36
2022-09-10T22:42:55.796Z,22.27
2022-09-10T22:45:54.774Z,22.32
2022-09-10T22:49:53.791Z,22.28
2022-09-10T22:51:55.110Z,22.18
2022-09-10T22:53:55.299Z,22.22
2022-09-10T22:56:55.242Z,22.26
2022-09-10T22:59:53.808Z,22.17
2022-09-10T23:01:55.392Z,22.11
2022-09-10T23:04:54.738Z,22.11
2022-09-10T23:06:54.768Z,22.15
2022-09-10T23:08:55.115Z,22.11
2022-09-10T23:11:53.831Z,22.14
2022-09-10T23:13:54.745Z,22.1
2022-09-10T23:16:54.774Z,22.11
2022-09-10T23:19:55.173Z,22.1
2022-09-10T23:22:54.756Z,22.11
2022-09-10T23:25:54.747Z,22.14
2022-09-10T23:27:54.764Z,22.1
2022-09-10T23:30:54.793Z,22
2022-09-10T23:32:54.789Z,21.82
2022-09-10T23:34:55.066Z,21.75
2022-09-10T23:36:55.309Z,21.76
2022-09-10T23:39:54.804Z,21.82
2022-09-10T23:41:54.788Z,21.82
2022-09-10T23:43:54.800Z,21.7
2022-09-10T23:46:55.191Z,21.67
2022-09-10T23:49:54.769Z,21.67
2022-09-10T23:51:55.230Z,21.72
2022-09-10T23:53:57.632Z,21.8
2022-09-10T23:56:54.789Z,21.85
2022-09-10T23:58:54.793Z,21.86
